sensor_id;sensor_type;location;lat;lon;timestamp;P1;durP1;ratioP1;P2;durP2;ratioP2
74849;SDS011;63397;47.480;19.238;2023-02-15T00:01:26;71.55;;;29.10;;
74849;SDS011;63397;47.480;19.238;2023-02-15T00:04:28;69.57;;;27.17;;
74849;SDS011;63397;47.480;19.238;2023-02-15T00:07:48;73.30;;;29.17;;
74849;SDS011;63397;47.480;19.238;2023-02-15T00:10:51;73.50;;;28.40;;
74849;SDS011;63397;47.480;19.238;2023-02-15T00:13:53;73.28;;;28.55;;
74849;SDS011;63397;47.480;19.238;2023-02-15T00:16:55;71.75;;;29.27;;
74849;SDS011;63397;47.480;19.238;2023-02-15T00:20:01;68.50;;;28.53;;
74849;SDS011;63397;47.480;19.238;2023-02-15T00:23:04;73.40;;;28.77;;
74849;SDS011;63397;47.480;19.238;2023-02-15T00:26:06;72.47;;;29.30;;
74849;SDS011;63397;47.480;19.238;2023-02-15T00:29:09;69.00;;;27.92;;
74849;SDS011;63397;47.480;19.238;2023-02-15T00:32:12;74.40;;;27.20;;
74849;SDS011;63397;47.480;19.238;2023-02-15T00:35:15;68.70;;;27.77;;
74849;SDS011;63397;47.480;19.238;2023-02-15T00:38:17;72.83;;;28.47;;
74849;SDS011;63397;47.480;19.238;2023-02-15T00:41:19;66.63;;;26.73;;
74849;SDS011;63397;47.480;19.238;2023-02-15T00:44:21;66.93;;;26.42;;
74849;SDS011;63397;47.480;19.238;2023-02-15T00:47:23;66.63;;;26.13;;
74849;SDS011;63397;47.480;19.238;2023-02-15T00:50:27;64.10;;;25.97;;
74849;SDS011;63397;47.480;19.238;2023-02-15T00:53:29;69.40;;;27.63;;
74849;SDS011;63397;47.480;19.238;2023-02-15T00:56:31;68.15;;;26.13;;
74849;SDS011;63397;47.480;19.238;2023-02-15T00:59:34;65.18;;;25.90;;
74849;SDS011;63397;47.480;19.238;2023-02-15T01:02:36;59.05;;;25.20;;
74849;SDS011;63397;47.480;19.238;2023-02-15T01:05:38;60.70;;;26.23;;
74849;SDS011;63397;47.480;19.238;2023-02-15T01:08:40;68.07;;;25.17;;
74849;SDS011;63397;47.480;19.238;2023-02-15T01:11:43;61.75;;;25.25;;
74849;SDS011;63397;47.480;19.238;2023-02-15T01:14:45;56.60;;;23.38;;
74849;SDS011;63397;47.480;19.238;2023-02-15T01:17:47;60.40;;;24.08;;
74849;SDS011;63397;47.480;19.238;2023-02-15T01:20:55;62.67;;;25.00;;
74849;SDS011;63397;47.480;19.238;2023-02-15T01:23:58;59.57;;;24.77;;
74849;SDS011;63397;47.480;19.238;2023-02-15T01:27:01;63.58;;;25.33;;
74849;SDS011;63397;47.480;19.238;2023-02-15T01:30:03;65.78;;;25.70;;
74849;SDS011;63397;47.480;19.238;2023-02-15T01:33:06;51.67;;;21.77;;
74849;SDS011;63397;47.480;19.238;2023-02-15T01:36:09;52.93;;;20.40;;
74849;SDS011;63397;47.480;19.238;2023-02-15T01:39:13;53.10;;;20.63;;
74849;SDS011;63397;47.480;19.238;2023-02-15T01:42:20;55.90;;;22.42;;
74849;SDS011;63397;47.480;19.238;2023-02-15T01:45:27;53.38;;;19.45;;
74849;SDS011;63397;47.480;19.238;2023-02-15T01:48:29;44.15;;;18.38;;
74849;SDS011;63397;47.480;19.238;2023-02-15T01:51:32;51.27;;;19.83;;
74849;SDS011;63397;47.480;19.238;2023-02-15T01:54:35;48.87;;;19.33;;
74849;SDS011;63397;47.480;19.238;2023-02-15T01:57:39;47.63;;;19.15;;
74849;SDS011;63397;47.480;19.238;2023-02-15T02:00:42;49.47;;;18.88;;
74849;SDS011;63397;47.480;19.238;2023-02-15T02:03:59;45.42;;;19.00;;
74849;SDS011;63397;47.480;19.238;2023-02-15T02:07:04;47.50;;;19.27;;
74849;SDS011;63397;47.480;19.238;2023-02-15T02:10:09;49.87;;;18.17;;
74849;SDS011;63397;47.480;19.238;2023-02-15T02:13:11;47.78;;;18.45;;
74849;SDS011;63397;47.480;19.238;2023-02-15T02:19:26;46.20;;;18.35;;
74849;SDS011;63397;47.480;19.238;2023-02-15T02:45:16;50.15;;;19.80;;
74849;SDS011;63397;47.480;19.238;2023-02-15T02:48:24;58.72;;;21.13;;
74849;SDS011;63397;47.480;19.238;2023-02-15T02:51:27;49.88;;;19.05;;
74849;SDS011;63397;47.480;19.238;2023-02-15T02:54:30;52.40;;;20.97;;
74849;SDS011;63397;47.480;19.238;2023-02-15T02:57:33;53.70;;;21.27;;
74849;SDS011;63397;47.480;19.238;2023-02-15T03:00:38;54.20;;;21.55;;
74849;SDS011;63397;47.480;19.238;2023-02-15T03:03:49;56.03;;;21.08;;
74849;SDS011;63397;47.480;19.238;2023-02-15T03:06:56;54.72;;;19.83;;
74849;SDS011;63397;47.480;19.238;2023-02-15T03:10:01;50.93;;;20.73;;
74849;SDS011;63397;47.480;19.238;2023-02-15T03:13:04;54.33;;;20.23;;
74849;SDS011;63397;47.480;19.238;2023-02-15T03:16:07;50.50;;;19.38;;
74849;SDS011;63397;47.480;19.238;2023-02-15T03:19:30;48.47;;;18.25;;
74849;SDS011;63397;47.480;19.238;2023-02-15T03:22:35;49.20;;;19.15;;
74849;SDS011;63397;47.480;19.238;2023-02-15T03:25:42;52.57;;;18.90;;
74849;SDS011;63397;47.480;19.238;2023-02-15T03:28:46;51.43;;;19.23;;
74849;SDS011;63397;47.480;19.238;2023-02-15T03:31:50;51.70;;;19.95;;
74849;SDS011;63397;47.480;19.238;2023-02-15T03:34:54;45.78;;;17.73;;
74849;SDS011;63397;47.480;19.238;2023-02-15T03:37:58;41.80;;;17.80;;
74849;SDS011;63397;47.480;19.238;2023-02-15T03:41:01;40.43;;;16.57;;
74849;SDS011;63397;47.480;19.238;2023-02-15T03:44:23;45.77;;;18.50;;
74849;SDS011;63397;47.480;19.238;2023-02-15T03:47:28;46.70;;;17.90;;
74849;SDS011;63397;47.480;19.238;2023-02-15T03:50:32;48.13;;;18.52;;
74849;SDS011;63397;47.480;19.238;2023-02-15T03:53:55;44.28;;;16.60;;
74849;SDS011;63397;47.480;19.238;2023-02-15T03:56:57;44.73;;;18.17;;
74849;SDS011;63397;47.480;19.238;2023-02-15T04:00:22;42.73;;;18.10;;
74849;SDS011;63397;47.480;19.238;2023-02-15T04:06:55;42.63;;;17.27;;
74849;SDS011;63397;47.480;19.238;2023-02-15T04:09:58;50.92;;;19.85;;
74849;SDS011;63397;47.480;19.238;2023-02-15T04:13:19;42.30;;;16.50;;
74849;SDS011;63397;47.480;19.238;2023-02-15T04:16:22;46.90;;;17.90;;
74849;SDS011;63397;47.480;19.238;2023-02-15T04:19:24;44.88;;;18.67;;
74849;SDS011;63397;47.480;19.238;2023-02-15T04:22:45;50.03;;;17.70;;
74849;SDS011;63397;47.480;19.238;2023-02-15T04:26:06;51.13;;;18.65;;
74849;SDS011;63397;47.480;19.238;2023-02-15T04:29:08;50.57;;;19.10;;
74849;SDS011;63397;47.480;19.238;2023-02-15T04:32:11;46.03;;;18.43;;
74849;SDS011;63397;47.480;19.238;2023-02-15T04:35:13;49.72;;;17.73;;
74849;SDS011;63397;47.480;19.238;2023-02-15T04:38:16;47.47;;;17.88;;
74849;SDS011;63397;47.480;19.238;2023-02-15T04:41:18;48.90;;;17.77;;
74849;SDS011;63397;47.480;19.238;2023-02-15T04:44:20;47.47;;;18.37;;
74849;SDS011;63397;47.480;19.238;2023-02-15T04:47:22;52.37;;;19.60;;
74849;SDS011;63397;47.480;19.238;2023-02-15T04:50:25;51.72;;;18.58;;
74849;SDS011;63397;47.480;19.238;2023-02-15T04:53:27;50.65;;;18.77;;
74849;SDS011;63397;47.480;19.238;2023-02-15T04:56:29;56.50;;;20.48;;
74849;SDS011;63397;47.480;19.238;2023-02-15T04:59:32;55.43;;;21.53;;
74849;SDS011;63397;47.480;19.238;2023-02-15T05:02:34;55.43;;;20.90;;
74849;SDS011;63397;47.480;19.238;2023-02-15T05:05:36;58.38;;;21.17;;
74849;SDS011;63397;47.480;19.238;2023-02-15T05:08:38;54.60;;;21.50;;
74849;SDS011;63397;47.480;19.238;2023-02-15T05:11:40;64.72;;;23.58;;
74849;SDS011;63397;47.480;19.238;2023-02-15T05:14:42;66.00;;;22.07;;
74849;SDS011;63397;47.480;19.238;2023-02-15T05:17:45;56.83;;;22.37;;
74849;SDS011;63397;47.480;19.238;2023-02-15T05:20:47;63.63;;;24.23;;
74849;SDS011;63397;47.480;19.238;2023-02-15T05:23:50;69.75;;;24.17;;
74849;SDS011;63397;47.480;19.238;2023-02-15T05:26:52;66.18;;;25.55;;
74849;SDS011;63397;47.480;19.238;2023-02-15T05:30:13;60.40;;;23.63;;
74849;SDS011;63397;47.480;19.238;2023-02-15T05:33:16;65.73;;;23.70;;
74849;SDS011;63397;47.480;19.238;2023-02-15T05:36:18;73.93;;;26.45;;
74849;SDS011;63397;47.480;19.238;2023-02-15T05:39:20;71.40;;;25.70;;
74849;SDS011;63397;47.480;19.238;2023-02-15T05:42:22;72.55;;;26.42;;
74849;SDS011;63397;47.480;19.238;2023-02-15T05:45:25;66.90;;;24.87;;
74849;SDS011;63397;47.480;19.238;2023-02-15T05:48:27;69.37;;;26.53;;
74849;SDS011;63397;47.480;19.238;2023-02-15T05:51:29;69.07;;;25.70;;
74849;SDS011;63397;47.480;19.238;2023-02-15T05:54:31;73.43;;;24.77;;
74849;SDS011;63397;47.480;19.238;2023-02-15T05:57:34;67.20;;;25.05;;
74849;SDS011;63397;47.480;19.238;2023-02-15T06:00:36;63.27;;;23.00;;
74849;SDS011;63397;47.480;19.238;2023-02-15T06:03:39;67.73;;;25.47;;
74849;SDS011;63397;47.480;19.238;2023-02-15T06:06:41;66.82;;;24.92;;
74849;SDS011;63397;47.480;19.238;2023-02-15T06:09:43;62.67;;;21.95;;
74849;SDS011;63397;47.480;19.238;2023-02-15T06:12:45;59.95;;;24.38;;
74849;SDS011;63397;47.480;19.238;2023-02-15T06:15:48;71.67;;;25.77;;
74849;SDS011;63397;47.480;19.238;2023-02-15T06:18:50;65.67;;;22.63;;
74849;SDS011;63397;47.480;19.238;2023-02-15T06:21:54;65.82;;;23.13;;
74849;SDS011;63397;47.480;19.238;2023-02-15T06:24:57;66.47;;;23.92;;
74849;SDS011;63397;47.480;19.238;2023-02-15T06:27:59;57.10;;;22.38;;
74849;SDS011;63397;47.480;19.238;2023-02-15T06:31:01;56.73;;;24.57;;
74849;SDS011;63397;47.480;19.238;2023-02-15T06:34:03;60.47;;;24.77;;
74849;SDS011;63397;47.480;19.238;2023-02-15T06:37:06;68.47;;;26.60;;
74849;SDS011;63397;47.480;19.238;2023-02-15T06:40:10;68.55;;;27.38;;
74849;SDS011;63397;47.480;19.238;2023-02-15T06:43:13;64.93;;;25.83;;
74849;SDS011;63397;47.480;19.238;2023-02-15T06:46:15;71.40;;;28.27;;
74849;SDS011;63397;47.480;19.238;2023-02-15T06:49:18;70.53;;;27.27;;
74849;SDS011;63397;47.480;19.238;2023-02-15T06:52:21;73.93;;;28.10;;
74849;SDS011;63397;47.480;19.238;2023-02-15T06:55:24;88.25;;;33.42;;
74849;SDS011;63397;47.480;19.238;2023-02-15T06:58:27;82.20;;;32.10;;
74849;SDS011;63397;47.480;19.238;2023-02-15T07:01:30;81.00;;;31.43;;
74849;SDS011;63397;47.480;19.238;2023-02-15T07:04:34;82.53;;;31.53;;
74849;SDS011;63397;47.480;19.238;2023-02-15T07:07:39;81.53;;;31.95;;
74849;SDS011;63397;47.480;19.238;2023-02-15T07:10:43;75.50;;;32.00;;
74849;SDS011;63397;47.480;19.238;2023-02-15T07:13:47;83.32;;;32.50;;
74849;SDS011;63397;47.480;19.238;2023-02-15T07:16:50;78.17;;;30.60;;
74849;SDS011;63397;47.480;19.238;2023-02-15T07:19:54;77.20;;;31.07;;
74849;SDS011;63397;47.480;19.238;2023-02-15T07:22:58;77.50;;;30.52;;
74849;SDS011;63397;47.480;19.238;2023-02-15T07:26:02;76.97;;;28.67;;
74849;SDS011;63397;47.480;19.238;2023-02-15T07:29:07;74.30;;;31.30;;
74849;SDS011;63397;47.480;19.238;2023-02-15T07:32:12;68.80;;;27.07;;
74849;SDS011;63397;47.480;19.238;2023-02-15T07:35:15;65.80;;;25.77;;
74849;SDS011;63397;47.480;19.238;2023-02-15T07:38:19;73.25;;;29.38;;
74849;SDS011;63397;47.480;19.238;2023-02-15T07:41:24;70.95;;;28.50;;
74849;SDS011;63397;47.480;19.238;2023-02-15T07:44:27;68.65;;;27.83;;
74849;SDS011;63397;47.480;19.238;2023-02-15T07:47:30;66.97;;;26.53;;
74849;SDS011;63397;47.480;19.238;2023-02-15T07:50:32;64.90;;;26.80;;
74849;SDS011;63397;47.480;19.238;2023-02-15T07:53:35;64.90;;;27.38;;
74849;SDS011;63397;47.480;19.238;2023-02-15T07:56:40;60.30;;;24.25;;
74849;SDS011;63397;47.480;19.238;2023-02-15T07:59:46;65.40;;;25.48;;
74849;SDS011;63397;47.480;19.238;2023-02-15T08:02:49;63.53;;;26.30;;
74849;SDS011;63397;47.480;19.238;2023-02-15T08:06:14;60.87;;;24.20;;
74849;SDS011;63397;47.480;19.238;2023-02-15T08:09:18;59.30;;;24.35;;
74849;SDS011;63397;47.480;19.238;2023-02-15T08:12:22;41.70;;;15.15;;
74849;SDS011;63397;47.480;19.238;2023-02-15T08:15:24;36.95;;;13.70;;
74849;SDS011;63397;47.480;19.238;2023-02-15T08:18:27;34.08;;;12.88;;
74849;SDS011;63397;47.480;19.238;2023-02-15T08:21:30;38.10;;;13.73;;
74849;SDS011;63397;47.480;19.238;2023-02-15T08:24:36;34.33;;;13.02;;
74849;SDS011;63397;47.480;19.238;2023-02-15T08:27:40;25.00;;;9.63;;
74849;SDS011;63397;47.480;19.238;2023-02-15T08:30:42;32.15;;;12.35;;
74849;SDS011;63397;47.480;19.238;2023-02-15T08:33:45;26.38;;;10.20;;
74849;SDS011;63397;47.480;19.238;2023-02-15T08:36:48;24.10;;;9.37;;
74849;SDS011;63397;47.480;19.238;2023-02-15T08:39:50;29.67;;;11.00;;
74849;SDS011;63397;47.480;19.238;2023-02-15T08:42:53;22.25;;;8.82;;
74849;SDS011;63397;47.480;19.238;2023-02-15T08:45:55;32.05;;;12.00;;
74849;SDS011;63397;47.480;19.238;2023-02-15T08:48:58;25.13;;;9.70;;
74849;SDS011;63397;47.480;19.238;2023-02-15T08:52:04;29.63;;;11.10;;
74849;SDS011;63397;47.480;19.238;2023-02-15T08:55:11;29.83;;;12.65;;
74849;SDS011;63397;47.480;19.238;2023-02-15T08:58:19;34.72;;;12.43;;
74849;SDS011;63397;47.480;19.238;2023-02-15T09:01:23;18.15;;;8.40;;
74849;SDS011;63397;47.480;19.238;2023-02-15T09:04:25;29.83;;;11.73;;
74849;SDS011;63397;47.480;19.238;2023-02-15T09:07:28;29.70;;;11.53;;
74849;SDS011;63397;47.480;19.238;2023-02-15T09:10:32;31.05;;;13.40;;
74849;SDS011;63397;47.480;19.238;2023-02-15T09:13:36;30.05;;;12.88;;
74849;SDS011;63397;47.480;19.238;2023-02-15T09:16:40;26.95;;;10.63;;
74849;SDS011;63397;47.480;19.238;2023-02-15T09:19:43;28.20;;;10.68;;
74849;SDS011;63397;47.480;19.238;2023-02-15T09:22:45;25.20;;;9.47;;
74849;SDS011;63397;47.480;19.238;2023-02-15T09:25:47;25.15;;;9.35;;
74849;SDS011;63397;47.480;19.238;2023-02-15T09:28:53;27.05;;;11.10;;
74849;SDS011;63397;47.480;19.238;2023-02-15T09:31:57;30.02;;;13.32;;
74849;SDS011;63397;47.480;19.238;2023-02-15T09:34:59;27.60;;;9.95;;
74849;SDS011;63397;47.480;19.238;2023-02-15T09:38:02;25.83;;;10.27;;
74849;SDS011;63397;47.480;19.238;2023-02-15T09:41:17;33.50;;;13.30;;
74849;SDS011;63397;47.480;19.238;2023-02-15T09:51:28;35.30;;;13.85;;
74849;SDS011;63397;47.480;19.238;2023-02-15T09:54:56;24.87;;;10.87;;
74849;SDS011;63397;47.480;19.238;2023-02-15T10:01:08;33.10;;;14.02;;
74849;SDS011;63397;47.480;19.238;2023-02-15T10:10:31;31.93;;;13.57;;
74849;SDS011;63397;47.480;19.238;2023-02-15T10:13:40;27.33;;;11.82;;
74849;SDS011;63397;47.480;19.238;2023-02-15T10:29:35;28.75;;;12.98;;
74849;SDS011;63397;47.480;19.238;2023-02-15T10:33:00;31.20;;;12.35;;
74849;SDS011;63397;47.480;19.238;2023-02-15T10:39:17;30.48;;;13.13;;
74849;SDS011;63397;47.480;19.238;2023-02-15T10:48:40;29.25;;;13.35;;
74849;SDS011;63397;47.480;19.238;2023-02-15T10:52:14;30.15;;;13.48;;
74849;SDS011;63397;47.480;19.238;2023-02-15T11:05:26;31.98;;;14.20;;
74849;SDS011;63397;47.480;19.238;2023-02-15T11:08:32;36.65;;;16.23;;
74849;SDS011;63397;47.480;19.238;2023-02-15T11:11:37;35.05;;;15.85;;
74849;SDS011;63397;47.480;19.238;2023-02-15T11:17:55;32.42;;;16.15;;
74849;SDS011;63397;47.480;19.238;2023-02-15T11:21:07;34.83;;;16.48;;
74849;SDS011;63397;47.480;19.238;2023-02-15T11:24:12;34.38;;;16.17;;
74849;SDS011;63397;47.480;19.238;2023-02-15T11:30:26;33.53;;;15.50;;
74849;SDS011;63397;47.480;19.238;2023-02-15T11:33:31;35.67;;;16.65;;
74849;SDS011;63397;47.480;19.238;2023-02-15T11:36:37;31.75;;;15.52;;
74849;SDS011;63397;47.480;19.238;2023-02-15T11:39:41;33.97;;;16.13;;
74849;SDS011;63397;47.480;19.238;2023-02-15T11:42:46;29.63;;;13.93;;
74849;SDS011;63397;47.480;19.238;2023-02-15T11:45:49;32.40;;;15.03;;
74849;SDS011;63397;47.480;19.238;2023-02-15T11:48:51;30.52;;;14.15;;
74849;SDS011;63397;47.480;19.238;2023-02-15T11:51:57;34.40;;;15.38;;
74849;SDS011;63397;47.480;19.238;2023-02-15T11:55:00;30.92;;;14.20;;
74849;SDS011;63397;47.480;19.238;2023-02-15T11:58:04;34.20;;;14.48;;
74849;SDS011;63397;47.480;19.238;2023-02-15T12:04:58;29.48;;;10.80;;
74849;SDS011;63397;47.480;19.238;2023-02-15T12:07:52;27.42;;;12.35;;
74849;SDS011;63397;47.480;19.238;2023-02-15T12:11:00;29.60;;;14.27;;
74849;SDS011;63397;47.480;19.238;2023-02-15T12:14:10;31.17;;;14.43;;
74849;SDS011;63397;47.480;19.238;2023-02-15T12:17:24;36.67;;;16.63;;
74849;SDS011;63397;47.480;19.238;2023-02-15T12:20:29;31.83;;;14.23;;
74849;SDS011;63397;47.480;19.238;2023-02-15T12:23:33;28.80;;;13.45;;
74849;SDS011;63397;47.480;19.238;2023-02-15T12:26:36;34.40;;;15.07;;
74849;SDS011;63397;47.480;19.238;2023-02-15T12:29:42;32.17;;;15.07;;
74849;SDS011;63397;47.480;19.238;2023-02-15T12:33:32;31.07;;;13.07;;
74849;SDS011;63397;47.480;19.238;2023-02-15T12:36:17;28.02;;;12.88;;
74849;SDS011;63397;47.480;19.238;2023-02-15T12:42:22;32.47;;;15.00;;
74849;SDS011;63397;47.480;19.238;2023-02-15T12:48:30;34.17;;;16.20;;
74849;SDS011;63397;47.480;19.238;2023-02-15T12:51:52;35.67;;;16.52;;
74849;SDS011;63397;47.480;19.238;2023-02-15T12:55:09;40.20;;;16.67;;
74849;SDS011;63397;47.480;19.238;2023-02-15T12:58:20;38.03;;;17.58;;
74849;SDS011;63397;47.480;19.238;2023-02-15T13:01:26;39.08;;;17.58;;
74849;SDS011;63397;47.480;19.238;2023-02-15T13:04:33;36.10;;;16.27;;
74849;SDS011;63397;47.480;19.238;2023-02-15T13:07:37;38.95;;;16.95;;
74849;SDS011;63397;47.480;19.238;2023-02-15T13:10:52;36.65;;;16.23;;
74849;SDS011;63397;47.480;19.238;2023-02-15T13:13:59;37.85;;;16.20;;
74849;SDS011;63397;47.480;19.238;2023-02-15T13:17:02;36.55;;;16.05;;
74849;SDS011;63397;47.480;19.238;2023-02-15T13:20:16;36.33;;;16.30;;
74849;SDS011;63397;47.480;19.238;2023-02-15T13:26:26;40.72;;;17.58;;
74849;SDS011;63397;47.480;19.238;2023-02-15T13:29:32;42.30;;;18.77;;
74849;SDS011;63397;47.480;19.238;2023-02-15T13:32:37;39.03;;;17.67;;
74849;SDS011;63397;47.480;19.238;2023-02-15T13:36:26;36.63;;;17.03;;
74849;SDS011;63397;47.480;19.238;2023-02-15T13:39:15;39.63;;;16.25;;
74849;SDS011;63397;47.480;19.238;2023-02-15T13:42:20;38.45;;;18.75;;
74849;SDS011;63397;47.480;19.238;2023-02-15T13:51:55;44.70;;;19.93;;
74849;SDS011;63397;47.480;19.238;2023-02-15T13:58:14;40.50;;;19.77;;
74849;SDS011;63397;47.480;19.238;2023-02-15T14:01:33;46.03;;;20.50;;
74849;SDS011;63397;47.480;19.238;2023-02-15T14:04:53;49.15;;;21.25;;
74849;SDS011;63397;47.480;19.238;2023-02-15T14:08:07;44.03;;;20.13;;
74849;SDS011;63397;47.480;19.238;2023-02-15T14:14:45;48.47;;;19.85;;
74849;SDS011;63397;47.480;19.238;2023-02-15T14:18:13;45.90;;;21.13;;
74849;SDS011;63397;47.480;19.238;2023-02-15T14:21:21;46.65;;;21.20;;
74849;SDS011;63397;47.480;19.238;2023-02-15T14:24:40;40.67;;;18.80;;
74849;SDS011;63397;47.480;19.238;2023-02-15T14:30:54;42.83;;;19.98;;
74849;SDS011;63397;47.480;19.238;2023-02-15T14:33:57;42.88;;;19.65;;
74849;SDS011;63397;47.480;19.238;2023-02-15T14:36:59;46.45;;;19.98;;
74849;SDS011;63397;47.480;19.238;2023-02-15T14:40:12;39.70;;;17.93;;
74849;SDS011;63397;47.480;19.238;2023-02-15T14:49:59;41.30;;;17.10;;
74849;SDS011;63397;47.480;19.238;2023-02-15T14:56:40;40.60;;;16.93;;
74849;SDS011;63397;47.480;19.238;2023-02-15T14:59:46;40.40;;;17.58;;
74849;SDS011;63397;47.480;19.238;2023-02-15T15:02:54;41.40;;;18.35;;
74849;SDS011;63397;47.480;19.238;2023-02-15T15:05:56;40.70;;;17.83;;
74849;SDS011;63397;47.480;19.238;2023-02-15T15:09:19;38.85;;;17.60;;
74849;SDS011;63397;47.480;19.238;2023-02-15T15:18:43;37.08;;;15.38;;
74849;SDS011;63397;47.480;19.238;2023-02-15T15:24:49;42.92;;;16.83;;
74849;SDS011;63397;47.480;19.238;2023-02-15T15:27:52;42.53;;;16.80;;
74849;SDS011;63397;47.480;19.238;2023-02-15T15:30:56;39.40;;;16.27;;
74849;SDS011;63397;47.480;19.238;2023-02-15T15:50:11;41.70;;;17.73;;
74849;SDS011;63397;47.480;19.238;2023-02-15T15:53:24;44.80;;;18.30;;
74849;SDS011;63397;47.480;19.238;2023-02-15T15:56:28;41.28;;;17.45;;
74849;SDS011;63397;47.480;19.238;2023-02-15T15:59:33;44.27;;;18.10;;
74849;SDS011;63397;47.480;19.238;2023-02-15T16:02:36;44.85;;;17.85;;
74849;SDS011;63397;47.480;19.238;2023-02-15T16:05:51;48.95;;;18.70;;
74849;SDS011;63397;47.480;19.238;2023-02-15T16:08:58;43.83;;;18.80;;
74849;SDS011;63397;47.480;19.238;2023-02-15T16:12:13;48.42;;;18.25;;
74849;SDS011;63397;47.480;19.238;2023-02-15T16:15:20;42.47;;;18.47;;
74849;SDS011;63397;47.480;19.238;2023-02-15T16:18:24;50.55;;;19.23;;
74849;SDS011;63397;47.480;19.238;2023-02-15T16:21:29;49.70;;;20.02;;
74849;SDS011;63397;47.480;19.238;2023-02-15T16:30:39;56.93;;;23.03;;
74849;SDS011;63397;47.480;19.238;2023-02-15T16:33:42;55.20;;;22.38;;
74849;SDS011;63397;47.480;19.238;2023-02-15T16:36:46;51.28;;;23.05;;
74849;SDS011;63397;47.480;19.238;2023-02-15T16:39:49;57.97;;;22.65;;
74849;SDS011;63397;47.480;19.238;2023-02-15T16:42:52;58.70;;;23.80;;
74849;SDS011;63397;47.480;19.238;2023-02-15T16:46:06;55.33;;;24.23;;
74849;SDS011;63397;47.480;19.238;2023-02-15T16:49:20;62.13;;;25.35;;
74849;SDS011;63397;47.480;19.238;2023-02-15T16:52:24;69.97;;;28.48;;
74849;SDS011;63397;47.480;19.238;2023-02-15T16:55:28;72.20;;;28.10;;
74849;SDS011;63397;47.480;19.238;2023-02-15T16:58:32;70.22;;;30.48;;
74849;SDS011;63397;47.480;19.238;2023-02-15T17:01:39;76.57;;;30.77;;
74849;SDS011;63397;47.480;19.238;2023-02-15T17:05:11;69.30;;;30.55;;
74849;SDS011;63397;47.480;19.238;2023-02-15T17:08:19;76.07;;;29.70;;
74849;SDS011;63397;47.480;19.238;2023-02-15T17:11:41;75.15;;;29.67;;
74849;SDS011;63397;47.480;19.238;2023-02-15T17:14:44;77.38;;;32.25;;
74849;SDS011;63397;47.480;19.238;2023-02-15T17:17:47;74.27;;;32.37;;
74849;SDS011;63397;47.480;19.238;2023-02-15T17:20:53;80.28;;;34.58;;
74849;SDS011;63397;47.480;19.238;2023-02-15T17:23:57;74.55;;;29.98;;
74849;SDS011;63397;47.480;19.238;2023-02-15T17:27:04;76.95;;;30.70;;
74849;SDS011;63397;47.480;19.238;2023-02-15T17:30:14;74.03;;;29.92;;
74849;SDS011;63397;47.480;19.238;2023-02-15T17:33:21;73.50;;;29.73;;
74849;SDS011;63397;47.480;19.238;2023-02-15T17:36:27;71.45;;;28.98;;
74849;SDS011;63397;47.480;19.238;2023-02-15T17:39:31;73.65;;;29.05;;
74849;SDS011;63397;47.480;19.238;2023-02-15T17:42:34;71.85;;;28.73;;
74849;SDS011;63397;47.480;19.238;2023-02-15T17:45:42;73.85;;;29.25;;
74849;SDS011;63397;47.480;19.238;2023-02-15T17:48:47;76.07;;;28.87;;
74849;SDS011;63397;47.480;19.238;2023-02-15T17:51:49;76.25;;;29.30;;
74849;SDS011;63397;47.480;19.238;2023-02-15T17:54:52;79.40;;;30.35;;
74849;SDS011;63397;47.480;19.238;2023-02-15T17:58:14;82.45;;;33.28;;
74849;SDS011;63397;47.480;19.238;2023-02-15T18:01:17;100.03;;;36.97;;
74849;SDS011;63397;47.480;19.238;2023-02-15T18:04:38;82.30;;;33.40;;
74849;SDS011;63397;47.480;19.238;2023-02-15T18:07:59;88.40;;;32.83;;
74849;SDS011;63397;47.480;19.238;2023-02-15T18:11:20;80.00;;;31.63;;
74849;SDS011;63397;47.480;19.238;2023-02-15T18:14:41;91.80;;;35.63;;
74849;SDS011;63397;47.480;19.238;2023-02-15T18:17:45;97.53;;;36.17;;
74849;SDS011;63397;47.480;19.238;2023-02-15T18:20:48;81.07;;;32.63;;
74849;SDS011;63397;47.480;19.238;2023-02-15T18:23:50;81.25;;;32.92;;
74849;SDS011;63397;47.480;19.238;2023-02-15T18:26:53;80.68;;;33.58;;
74849;SDS011;63397;47.480;19.238;2023-02-15T18:29:55;89.60;;;35.95;;
74849;SDS011;63397;47.480;19.238;2023-02-15T18:32:58;85.45;;;35.22;;
74849;SDS011;63397;47.480;19.238;2023-02-15T18:36:01;87.27;;;34.23;;
74849;SDS011;63397;47.480;19.238;2023-02-15T18:39:05;84.78;;;34.15;;
74849;SDS011;63397;47.480;19.238;2023-02-15T18:42:21;84.00;;;34.17;;
74849;SDS011;63397;47.480;19.238;2023-02-15T18:45:25;81.63;;;35.63;;
74849;SDS011;63397;47.480;19.238;2023-02-15T18:48:29;85.03;;;32.70;;
74849;SDS011;63397;47.480;19.238;2023-02-15T18:51:32;88.50;;;33.57;;
74849;SDS011;63397;47.480;19.238;2023-02-15T18:54:40;80.55;;;31.42;;
74849;SDS011;63397;47.480;19.238;2023-02-15T18:57:43;86.53;;;33.55;;
74849;SDS011;63397;47.480;19.238;2023-02-15T19:00:47;86.75;;;33.22;;
74849;SDS011;63397;47.480;19.238;2023-02-15T19:03:51;82.07;;;31.23;;
74849;SDS011;63397;47.480;19.238;2023-02-15T19:06:53;85.53;;;33.80;;
74849;SDS011;63397;47.480;19.238;2023-02-15T19:09:57;92.47;;;34.17;;
74849;SDS011;63397;47.480;19.238;2023-02-15T19:13:00;93.30;;;35.17;;
74849;SDS011;63397;47.480;19.238;2023-02-15T19:16:02;83.38;;;34.00;;
74849;SDS011;63397;47.480;19.238;2023-02-15T19:19:07;88.97;;;34.03;;
74849;SDS011;63397;47.480;19.238;2023-02-15T19:22:17;95.07;;;36.07;;
74849;SDS011;63397;47.480;19.238;2023-02-15T19:25:26;94.55;;;35.92;;
74849;SDS011;63397;47.480;19.238;2023-02-15T19:28:30;97.20;;;36.75;;
74849;SDS011;63397;47.480;19.238;2023-02-15T19:31:34;94.72;;;37.65;;
74849;SDS011;63397;47.480;19.238;2023-02-15T19:34:36;106.40;;;41.27;;
74849;SDS011;63397;47.480;19.238;2023-02-15T19:37:39;110.73;;;40.63;;
74849;SDS011;63397;47.480;19.238;2023-02-15T19:40:44;119.78;;;43.35;;
74849;SDS011;63397;47.480;19.238;2023-02-15T19:43:48;116.95;;;43.25;;
74849;SDS011;63397;47.480;19.238;2023-02-15T19:46:54;101.05;;;39.03;;
74849;SDS011;63397;47.480;19.238;2023-02-15T19:49:56;109.00;;;41.60;;
74849;SDS011;63397;47.480;19.238;2023-02-15T19:53:05;107.43;;;40.57;;
74849;SDS011;63397;47.480;19.238;2023-02-15T19:56:16;103.07;;;39.60;;
74849;SDS011;63397;47.480;19.238;2023-02-15T19:59:23;103.68;;;39.15;;
74849;SDS011;63397;47.480;19.238;2023-02-15T20:02:26;98.68;;;37.33;;
74849;SDS011;63397;47.480;19.238;2023-02-15T20:05:29;98.23;;;38.07;;
74849;SDS011;63397;47.480;19.238;2023-02-15T20:08:33;92.37;;;34.73;;
74849;SDS011;63397;47.480;19.238;2023-02-15T20:11:35;94.90;;;36.22;;
74849;SDS011;63397;47.480;19.238;2023-02-15T20:14:37;96.45;;;36.92;;
74849;SDS011;63397;47.480;19.238;2023-02-15T20:17:43;94.32;;;34.80;;
74849;SDS011;63397;47.480;19.238;2023-02-15T20:20:52;93.90;;;35.57;;
74849;SDS011;63397;47.480;19.238;2023-02-15T20:23:55;85.83;;;36.13;;
74849;SDS011;63397;47.480;19.238;2023-02-15T20:26:58;95.05;;;35.60;;